Time;durP1;ratioP1;P1;durP2;ratioP2;P2;SDS_P1;SDS_P2;PMS_P1;PMS_P2;Temp;Humidity;BMP_temperature;BMP_pressure;BME280_temperature;BME280_humidity;BME280_pressure;Samples;Min_cycle;Max_cycle;Signal;HPM_P1;HPM_P2
2021/08/04 00:00:33;;;;;;;10.65;9.55;;;;;;;;;;5008100;28;20033;-80
2021/08/04 00:02:59;;;;;;;11.57;9.57;;;;;;;;;;5031373;28;20026;-80
2021/08/04 00:05:24;;;;;;;11.38;9.63;;;;;;;;;;5003102;28;20034;-80
2021/08/04 00:07:50;;;;;;;12.80;9.93;;;;;;;;;;5011985;28;20048;-80
2021/08/04 00:10:16;;;;;;;11.65;9.85;;;;;;;;;;5021964;28;20025;-80
2021/08/04 00:12:42;;;;;;;11.80;9.07;;;;;;;;;;5033977;28;20042;-80
2021/08/04 00:15:09;;;;;;;10.68;9.55;;;;;;;;;;5025519;28;20052;-80
2021/08/04 00:17:35;;;;;;;11.95;9.70;;;;;;;;;;5018217;28;20122;-80
2021/08/04 00:20:00;;;;;;;11.23;9.40;;;;;;;;;;5019846;28;20502;-81
2021/08/04 00:22:26;;;;;;;13.88;10.25;;;;;;;;;;5025252;28;20038;-80
2021/08/04 00:24:51;;;;;;;12.88;9.88;;;;;;;;;;4995491;28;20099;-81
2021/08/04 00:27:17;;;;;;;10.68;9.57;;;;;;;;;;5029692;28;20125;-80
2021/08/04 00:29:43;;;;;;;11.75;10.18;;;;;;;;;;5025707;28;20456;-81
2021/08/04 00:32:08;;;;;;;12.80;10.18;;;;;;;;;;5015453;28;20053;-81
2021/08/04 00:34:34;;;;;;;15.27;10.38;;;;;;;;;;5035644;28;20128;-81
2021/08/04 00:36:59;;;;;;;11.82;9.95;;;;;;;;;;5030680;28;20113;-81
2021/08/04 00:39:24;;;;;;;13.15;10.15;;;;;;;;;;5033896;28;20117;-81
2021/08/04 00:41:50;;;;;;;10.82;9.32;;;;;;;;;;5011652;28;20434;-81
2021/08/04 00:44:15;;;;;;;13.88;10.48;;;;;;;;;;5036081;28;20037;-80
2021/08/04 00:46:43;;;;;;;10.88;9.40;;;;;;;;;;5034381;28;20485;-81
2021/08/04 00:49:13;;;;;;;11.10;9.93;;;;;;;;;;5033142;28;20033;-81
2021/08/04 00:51:38;;;;;;;14.25;10.18;;;;;;;;;;5043211;28;20025;-80
2021/08/04 00:54:08;;;;;;;12.05;10.07;;;;;;;;;;5021986;28;20037;-80
2021/08/04 00:56:34;;;;;;;13.13;9.82;;;;;;;;;;5029686;28;20058;-80
2021/08/04 00:59:01;;;;;;;12.93;10.80;;;;;;;;;;5028375;28;20029;-80
2021/08/04 01:01:43;;;;;;;11.80;10.52;;;;;;;;;;5005716;28;20118;-80
2021/08/04 01:04:23;;;;;;;12.75;10.60;;;;;;;;;;5035454;28;20384;-80
2021/08/04 01:07:03;;;;;;;12.70;10.40;;;;;;;;;;5047286;28;20052;-80
2021/08/04 01:09:37;;;;;;;13.35;10.38;;;;;;;;;;5028024;28;20044;-80
2021/08/04 01:12:05;;;;;;;12.63;9.60;;;;;;;;;;5024593;28;20026;-81
2021/08/04 01:14:34;;;;;;;10.98;9.65;;;;;;;;;;5045617;28;20033;-80
2021/08/04 01:17:01;;;;;;;12.52;10.27;;;;;;;;;;5031239;28;20033;-80
2021/08/04 01:19:57;;;;;;;12.70;10.63;;;;;;;;;;5024191;28;20385;-80
2021/08/04 01:22:47;;;;;;;11.40;9.60;;;;;;;;;;5030133;28;20382;-80
2021/08/04 01:25:18;;;;;;;11.60;9.77;;;;;;;;;;5031993;28;20074;-80
2021/08/04 01:27:48;;;;;;;12.52;10.50;;;;;;;;;;5031096;28;20092;-80
2021/08/04 01:30:14;;;;;;;12.38;10.60;;;;;;;;;;5031593;28;20025;-80
2021/08/04 01:32:40;;;;;;;12.23;10.38;;;;;;;;;;5032444;28;20032;-80
2021/08/04 01:35:07;;;;;;;11.98;10.23;;;;;;;;;;5033055;28;20030;-80
2021/08/04 01:37:35;;;;;;;11.18;9.98;;;;;;;;;;5034066;28;20042;-80
2021/08/04 01:40:02;;;;;;;11.98;10.10;;;;;;;;;;5032561;28;20017;-80
2021/08/04 01:42:33;;;;;;;10.98;9.43;;;;;;;;;;5030323;28;20060;-80
2021/08/04 01:45:01;;;;;;;12.43;9.95;;;;;;;;;;5033889;28;20503;-80
2021/08/04 01:47:29;;;;;;;10.30;9.25;;;;;;;;;;5028469;28;20025;-80
2021/08/04 01:49:56;;;;;;;11.70;9.55;;;;;;;;;;5031261;28;20030;-80
2021/08/04 01:52:21;;;;;;;11.25;10.05;;;;;;;;;;5025416;28;20042;-80
2021/08/04 01:54:47;;;;;;;10.75;9.63;;;;;;;;;;5012386;28;20037;-80
2021/08/04 01:57:13;;;;;;;12.10;9.57;;;;;;;;;;5026419;28;20021;-80
2021/08/04 01:59:39;;;;;;;10.35;9.02;;;;;;;;;;4999523;28;20461;-80
2021/08/04 02:02:16;;;;;;;13.55;9.18;;;;;;;;;;5013636;28;20030;-80
2021/08/04 02:04:41;;;;;;;15.57;9.40;;;;;;;;;;5032052;28;20037;-80
2021/08/04 02:07:15;;;;;;;10.18;9.18;;;;;;;;;;5029546;28;20037;-80
2021/08/04 02:09:51;;;;;;;10.93;9.65;;;;;;;;;;5025160;28;21555;-80
2021/08/04 02:12:16;;;;;;;13.35;10.50;;;;;;;;;;5027442;28;20453;-80
2021/08/04 02:14:51;;;;;;;10.45;9.35;;;;;;;;;;5043070;28;20033;-80
2021/08/04 02:17:19;;;;;;;11.02;9.55;;;;;;;;;;5023589;28;20025;-80
2021/08/04 02:20:13;;;;;;;12.98;9.93;;;;;;;;;;5030787;28;20029;-80
2021/08/04 02:23:31;;;;;;;13.15;10.73;;;;;;;;;;5032955;28;20568;-79
2021/08/04 02:26:06;;;;;;;11.88;9.40;;;;;;;;;;5016416;28;20041;-80
2021/08/04 02:28:35;;;;;;;12.05;9.75;;;;;;;;;;5026844;28;20366;-80
2021/08/04 02:31:02;;;;;;;12.25;9.70;;;;;;;;;;5026546;28;20449;-80
2021/08/04 02:33:29;;;;;;;11.20;9.77;;;;;;;;;;5034545;28;20407;-80
2021/08/04 02:35:55;;;;;;;11.88;9.18;;;;;;;;;;5049517;28;20500;-80
2021/08/04 02:38:21;;;;;;;11.50;9.60;;;;;;;;;;5033942;28;20041;-80
2021/08/04 02:40:47;;;;;;;11.45;9.23;;;;;;;;;;5028222;28;20525;-80
2021/08/04 02:43:14;;;;;;;12.27;9.73;;;;;;;;;;5014020;28;20120;-80
2021/08/04 02:45:41;;;;;;;10.70;8.80;;;;;;;;;;5028320;28;20036;-80
2021/08/04 02:48:07;;;;;;;10.25;9.15;;;;;;;;;;5027205;28;20045;-80
2021/08/04 02:50:37;;;;;;;10.85;9.18;;;;;;;;;;5024021;28;20028;-80
2021/08/04 02:53:03;;;;;;;11.07;8.73;;;;;;;;;;5032666;28;20473;-80
2021/08/04 02:55:28;;;;;;;14.15;9.23;;;;;;;;;;5033524;28;20057;-80
2021/08/04 02:57:54;;;;;;;10.90;9.63;;;;;;;;;;5032035;28;20057;-80
2021/08/04 03:00:19;;;;;;;10.93;9.55;;;;;;;;;;5017060;28;20453;-80
2021/08/04 03:02:44;;;;;;;11.40;9.52;;;;;;;;;;5024829;28;20481;-80
2021/08/04 03:05:10;;;;;;;11.63;9.55;;;;;;;;;;5010755;28;20092;-81
2021/08/04 03:07:36;;;;;;;11.95;8.88;;;;;;;;;;5026048;28;20032;-81
2021/08/04 03:10:01;;;;;;;14.15;9.68;;;;;;;;;;5029383;28;20021;-81
2021/08/04 03:12:27;;;;;;;11.48;8.68;;;;;;;;;;5013951;28;20544;-80
2021/08/04 03:14:52;;;;;;;11.18;8.80;;;;;;;;;;5031422;28;20034;-80
2021/08/04 03:17:18;;;;;;;9.50;7.78;;;;;;;;;;5025602;28;20108;-80
2021/08/04 03:19:43;;;;;;;10.82;7.28;;;;;;;;;;5026477;28;20029;-80
2021/08/04 03:22:08;;;;;;;13.45;6.90;;;;;;;;;;5030994;28;20040;-80
2021/08/04 03:24:34;;;;;;;7.97;6.80;;;;;;;;;;5032768;28;20032;-80
2021/08/04 03:26:59;;;;;;;12.82;6.78;;;;;;;;;;5030548;28;20036;-80
2021/08/04 03:29:25;;;;;;;8.25;6.72;;;;;;;;;;5026320;28;20021;-80
2021/08/04 03:31:50;;;;;;;8.27;7.40;;;;;;;;;;5011353;28;20488;-80
2021/08/04 03:34:16;;;;;;;9.75;7.50;;;;;;;;;;5018642;28;20079;-80
2021/08/04 03:36:42;;;;;;;12.32;7.50;;;;;;;;;;5033172;28;20025;-80
2021/08/04 03:39:07;;;;;;;10.55;7.95;;;;;;;;;;5006613;28;20479;-80
2021/08/04 03:41:32;;;;;;;10.38;8.18;;;;;;;;;;5029191;28;20059;-80
2021/08/04 03:43:58;;;;;;;11.02;7.95;;;;;;;;;;5013213;28;20121;-80
2021/08/04 03:46:23;;;;;;;9.00;7.80;;;;;;;;;;5031393;28;20033;-81
2021/08/04 03:48:49;;;;;;;10.57;8.27;;;;;;;;;;5029328;28;20105;-80
2021/08/04 03:51:14;;;;;;;11.48;8.32;;;;;;;;;;5027141;28;20398;-81
2021/08/04 03:53:40;;;;;;;10.45;8.07;;;;;;;;;;5022958;28;20029;-80
2021/08/04 03:56:05;;;;;;;9.35;8.35;;;;;;;;;;5030346;28;20053;-80
2021/08/04 03:58:30;;;;;;;9.18;8.05;;;;;;;;;;5030803;28;20037;-80
2021/08/04 04:00:56;;;;;;;11.43;8.65;;;;;;;;;;5025610;28;20083;-80
2021/08/04 04:03:21;;;;;;;9.80;7.65;;;;;;;;;;5027336;28;20033;-80
2021/08/04 04:05:46;;;;;;;11.55;7.85;;;;;;;;;;5013659;28;20199;-79
2021/08/04 04:08:12;;;;;;;9.93;8.02;;;;;;;;;;5023765;28;20026;-80
2021/08/04 04:10:38;;;;;;;12.10;7.95;;;;;;;;;;5028998;28;20087;-80
2021/08/04 04:13:03;;;;;;;10.88;7.85;;;;;;;;;;5011759;28;20025;-79
2021/08/04 04:15:29;;;;;;;11.20;8.10;;;;;;;;;;5015063;28;20060;-80
2021/08/04 04:17:54;;;;;;;9.20;8.23;;;;;;;;;;5027910;28;20485;-80
2021/08/04 04:20:20;;;;;;;10.63;8.85;;;;;;;;;;5007497;28;20033;-80
2021/08/04 04:22:45;;;;;;;9.52;8.52;;;;;;;;;;5012516;28;20038;-80
2021/08/04 04:25:12;;;;;;;10.80;8.82;;;;;;;;;;5026753;28;20032;-80
2021/08/04 04:27:39;;;;;;;9.70;8.35;;;;;;;;;;5022439;28;20040;-80
2021/08/04 04:30:05;;;;;;;9.43;7.95;;;;;;;;;;5029244;28;20120;-80
2021/08/04 04:32:31;;;;;;;9.95;8.13;;;;;;;;;;5023631;28;20037;-80
2021/08/04 04:34:56;;;;;;;10.15;8.63;;;;;;;;;;5010429;28;20044;-80
2021/08/04 04:37:21;;;;;;;9.98;8.30;;;;;;;;;;5014499;28;20120;-80
2021/08/04 04:39:47;;;;;;;9.88;8.02;;;;;;;;;;5030232;28;20074;-80
2021/08/04 04:42:12;;;;;;;11.27;8.10;;;;;;;;;;5024885;28;20484;-80
2021/08/04 04:44:37;;;;;;;15.65;8.27;;;;;;;;;;5018921;28;20029;-80
2021/08/04 04:47:03;;;;;;;10.25;7.97;;;;;;;;;;5029944;28;20041;-80
2021/08/04 04:49:28;;;;;;;9.82;7.78;;;;;;;;;;5030476;28;20418;-80
2021/08/04 04:51:54;;;;;;;11.45;7.75;;;;;;;;;;5021913;28;20053;-80
2021/08/04 04:54:19;;;;;;;9.77;8.02;;;;;;;;;;5026225;28;20029;-80
2021/08/04 04:56:45;;;;;;;15.23;7.55;;;;;;;;;;5012872;28;20058;-80
2021/08/04 04:59:10;;;;;;;13.18;7.45;;;;;;;;;;5015043;28;20395;-80
2021/08/04 05:01:35;;;;;;;14.75;7.35;;;;;;;;;;5028301;28;20040;-80
2021/08/04 05:04:01;;;;;;;16.02;6.43;;;;;;;;;;5022954;28;20044;-81
2021/08/04 05:06:26;;;;;;;9.70;6.75;;;;;;;;;;5010322;28;20117;-80
2021/08/04 05:08:52;;;;;;;11.02;6.90;;;;;;;;;;5005702;28;20095;-80
2021/08/04 05:11:17;;;;;;;18.02;7.22;;;;;;;;;;5026832;28;20045;-80
2021/08/04 05:13:42;;;;;;;9.73;6.78;;;;;;;;;;5025606;28;20033;-80
2021/08/04 05:16:08;;;;;;;15.40;7.68;;;;;;;;;;5026997;28;20103;-80
2021/08/04 05:18:33;;;;;;;11.95;7.28;;;;;;;;;;5016240;28;20385;-80
2021/08/04 05:20:59;;;;;;;11.50;6.95;;;;;;;;;;5029357;28;20111;-79
2021/08/04 05:23:24;;;;;;;11.55;6.63;;;;;;;;;;5028620;28;20064;-80
2021/08/04 05:25:50;;;;;;;14.45;6.40;;;;;;;;;;5010529;28;20033;-80
2021/08/04 05:28:15;;;;;;;10.27;6.38;;;;;;;;;;5021247;28;20029;-79
2021/08/04 05:30:41;;;;;;;13.07;6.68;;;;;;;;;;5015360;28;20500;-80
2021/08/04 05:33:06;;;;;;;9.75;6.35;;;;;;;;;;5018046;28;20075;-80
2021/08/04 05:35:32;;;;;;;11.00;6.70;;;;;;;;;;5014462;28;20125;-80
2021/08/04 05:37:57;;;;;;;7.70;6.20;;;;;;;;;;5032122;28;20472;-80
2021/08/04 05:40:23;;;;;;;12.35;6.88;;;;;;;;;;5031458;28;21034;-80
2021/08/04 05:42:48;;;;;;;8.80;7.07;;;;;;;;;;5030390;28;20073;-80
2021/08/04 05:45:14;;;;;;;9.27;7.93;;;;;;;;;;5026458;28;20044;-80
2021/08/04 05:47:39;;;;;;;10.45;8.50;;;;;;;;;;5030661;28;20408;-80
2021/08/04 05:50:05;;;;;;;8.68;7.55;;;;;;;;;;5028217;28;20030;-80
2021/08/04 05:52:30;;;;;;;10.30;8.63;;;;;;;;;;5008765;28;20025;-80
2021/08/04 05:54:56;;;;;;;15.05;9.90;;;;;;;;;;5013569;28;20417;-80
2021/08/04 05:57:21;;;;;;;10.70;9.13;;;;;;;;;;5023044;28;20040;-80
2021/08/04 05:59:47;;;;;;;10.57;8.82;;;;;;;;;;5032925;28;20438;-80
2021/08/04 06:02:12;;;;;;;11.10;9.35;;;;;;;;;;5030832;28;20433;-80
2021/08/04 06:04:37;;;;;;;11.40;10.02;;;;;;;;;;5027971;28;20038;-80
2021/08/04 06:07:03;;;;;;;12.32;8.60;;;;;;;;;;5033271;28;20039;-80
2021/08/04 06:09:30;;;;;;;13.43;10.38;;;;;;;;;;5008574;28;20388;-80
2021/08/04 06:11:56;;;;;;;11.35;8.95;;;;;;;;;;5029715;28;20481;-80
2021/08/04 06:14:22;;;;;;;11.35;9.80;;;;;;;;;;5012386;28;20058;-80
2021/08/04 06:16:47;;;;;;;13.32;9.95;;;;;;;;;;5009206;28;20508;-80
2021/08/04 06:19:13;;;;;;;12.32;10.98;;;;;;;;;;5029100;28;20465;-80
2021/08/04 06:21:38;;;;;;;11.32;9.38;;;;;;;;;;5030373;28;20021;-80
2021/08/04 06:24:04;;;;;;;11.73;9.80;;;;;;;;;;5026716;28;20040;-80
2021/08/04 06:26:29;;;;;;;13.73;9.88;;;;;;;;;;5029289;28;20424;-80
2021/08/04 06:28:55;;;;;;;17.08;10.05;;;;;;;;;;5015257;28;20053;-80
2021/08/04 06:31:20;;;;;;;13.57;11.43;;;;;;;;;;5022858;28;20030;-80
2021/08/04 06:33:45;;;;;;;14.82;11.43;;;;;;;;;;5033468;28;20033;-80
2021/08/04 06:36:11;;;;;;;16.35;10.43;;;;;;;;;;5029304;28;20462;-80
2021/08/04 06:38:36;;;;;;;14.00;10.07;;;;;;;;;;5028873;28;20120;-80
2021/08/04 06:41:02;;;;;;;21.10;12.93;;;;;;;;;;4998096;28;20424;-80
2021/08/04 06:43:27;;;;;;;16.40;11.35;;;;;;;;;;5029287;28;20054;-80
2021/08/04 06:45:52;;;;;;;19.92;12.98;;;;;;;;;;5032204;28;20067;-80
2021/08/04 06:48:18;;;;;;;18.38;12.35;;;;;;;;;;5013866;28;20087;-80
2021/08/04 06:50:44;;;;;;;17.40;12.32;;;;;;;;;;5033768;28;20512;-80
2021/08/04 06:53:09;;;;;;;15.65;12.02;;;;;;;;;;5029478;28;20397;-80
2021/08/04 06:55:35;;;;;;;15.88;12.18;;;;;;;;;;5013686;28;20042;-80
2021/08/04 06:58:00;;;;;;;17.35;12.25;;;;;;;;;;5015281;28;20052;-80
2021/08/04 07:00:26;;;;;;;14.70;11.70;;;;;;;;;;5030811;28;20026;-80
2021/08/04 07:02:51;;;;;;;15.88;12.57;;;;;;;;;;5029490;28;20067;-80
2021/08/04 07:05:17;;;;;;;14.93;12.20;;;;;;;;;;5006133;28;20041;-80
2021/08/04 07:07:44;;;;;;;13.95;11.32;;;;;;;;;;5027764;28;20029;-80
2021/08/04 07:10:10;;;;;;;15.40;12.18;;;;;;;;;;5020540;28;20103;-80
2021/08/04 07:12:36;;;;;;;15.65;10.80;;;;;;;;;;5030780;28;20045;-80
2021/08/04 07:15:02;;;;;;;15.80;10.15;;;;;;;;;;5029066;28;20026;-81
2021/08/04 07:17:27;;;;;;;13.35;9.43;;;;;;;;;;5030596;28;20125;-80
2021/08/04 07:19:53;;;;;;;12.85;10.32;;;;;;;;;;5029535;28;20048;-80
2021/08/04 07:22:18;;;;;;;12.85;10.57;;;;;;;;;;5031232;28;20041;-80
2021/08/04 07:24:43;;;;;;;16.08;12.23;;;;;;;;;;5004784;28;20037;-80
2021/08/04 07:27:09;;;;;;;15.52;12.27;;;;;;;;;;5014210;28;20057;-80
2021/08/04 07:29:35;;;;;;;18.88;12.45;;;;;;;;;;5009025;28;20029;-80
2021/08/04 07:32:00;;;;;;;15.05;12.43;;;;;;;;;;5024337;28;20397;-81
2021/08/04 07:34:26;;;;;;;17.95;12.18;;;;;;;;;;5030486;28;20036;-81
2021/08/04 07:36:52;;;;;;;18.15;11.70;;;;;;;;;;5019267;28;20041;-80
2021/08/04 07:39:18;;;;;;;16.48;11.80;;;;;;;;;;5026000;28;20123;-80
2021/08/04 07:41:45;;;;;;;12.25;9.40;;;;;;;;;;5003801;28;20025;-80
2021/08/04 07:44:11;;;;;;;12.10;9.82;;;;;;;;;;5022486;28;20108;-80
2021/08/04 07:46:37;;;;;;;13.82;10.10;;;;;;;;;;5014965;28;20029;-80
2021/08/04 07:49:03;;;;;;;14.25;10.80;;;;;;;;;;5020241;28;20751;-80
2021/08/04 07:51:28;;;;;;;14.82;10.60;;;;;;;;;;5008099;28;20045;-79
2021/08/04 07:53:53;;;;;;;10.45;9.27;;;;;;;;;;5016247;28;20045;-80
2021/08/04 07:56:22;;;;;;;11.88;9.25;;;;;;;;;;5018373;28;20057;-81
2021/08/04 07:58:48;;;;;;;13.18;10.15;;;;;;;;;;5006626;28;20607;-81
2021/08/04 08:01:14;;;;;;;17.65;10.63;;;;;;;;;;5015056;28;20049;-80
2021/08/04 08:03:39;;;;;;;13.35;9.80;;;;;;;;;;5022363;28;20056;-80
2021/08/04 08:06:04;;;;;;;12.68;9.75;;;;;;;;;;5022390;28;20392;-80
2021/08/04 08:08:30;;;;;;;14.82;9.55;;;;;;;;;;5010260;28;20048;-80
2021/08/04 08:10:56;;;;;;;14.90;9.55;;;;;;;;;;5023757;28;20037;-80
2021/08/04 08:13:22;;;;;;;10.98;9.35;;;;;;;;;;5021984;28;20552;-80
2021/08/04 08:15:48;;;;;;;10.60;8.50;;;;;;;;;;5034391;28;20049;-80
2021/08/04 08:18:14;;;;;;;11.85;9.18;;;;;;;;;;5014824;28;20480;-80
2021/08/04 08:20:40;;;;;;;11.60;9.60;;;;;;;;;;5018516;28;20032;-80
2021/08/04 08:23:07;;;;;;;14.57;8.93;;;;;;;;;;5022025;28;20037;-80
2021/08/04 08:25:33;;;;;;;10.95;8.38;;;;;;;;;;5018319;28;20041;-80
2021/08/04 08:27:59;;;;;;;8.82;7.20;;;;;;;;;;5027938;28;20096;-81
2021/08/04 08:30:26;;;;;;;10.43;6.65;;;;;;;;;;5026457;28;20111;-81
2021/08/04 08:32:52;;;;;;;9.30;6.50;;;;;;;;;;5022855;28;20043;-81
2021/08/04 08:35:18;;;;;;;13.27;6.90;;;;;;;;;;5005993;28;20034;-81
2021/08/04 08:37:44;;;;;;;8.95;6.82;;;;;;;;;;5029980;28;20036;-80
2021/08/04 08:40:11;;;;;;;8.32;6.30;;;;;;;;;;5006255;28;20022;-81
2021/08/04 08:42:38;;;;;;;11.15;6.75;;;;;;;;;;5003131;28;20029;-81
2021/08/04 08:45:05;;;;;;;8.85;6.28;;;;;;;;;;5026468;28;20041;-81
2021/08/04 08:47:31;;;;;;;8.50;5.88;;;;;;;;;;5006530;28;20034;-81
2021/08/04 08:49:59;;;;;;;7.25;5.80;;;;;;;;;;4994354;28;20040;-81
2021/08/04 08:52:25;;;;;;;8.65;6.35;;;;;;;;;;5031062;28;20025;-81
2021/08/04 08:54:51;;;;;;;8.75;5.93;;;;;;;;;;5028898;28;20107;-81
2021/08/04 08:57:16;;;;;;;11.57;7.13;;;;;;;;;;5012406;28;20053;-81
2021/08/04 08:59:41;;;;;;;8.20;6.57;;;;;;;;;;5022205;28;20034;-81
2021/08/04 09:02:07;;;;;;;9.45;5.65;;;;;;;;;;5029658;28;20032;-81
2021/08/04 09:04:33;;;;;;;7.57;4.88;;;;;;;;;;5026676;28;20033;-81
2021/08/04 09:07:00;;;;;;;7.15;5.50;;;;;;;;;;5023281;28;20099;-81
2021/08/04 09:09:31;;;;;;;11.07;6.30;;;;;;;;;;5020381;28;20084;-81
2021/08/04 09:12:13;;;;;;;8.30;5.70;;;;;;;;;;5025214;28;20061;-81
2021/08/04 09:14:39;;;;;;;8.52;5.55;;;;;;;;;;5016670;28;20398;-82
2021/08/04 09:17:11;;;;;;;7.93;5.45;;;;;;;;;;5025470;28;20405;-81
2021/08/04 09:19:45;;;;;;;9.80;6.10;;;;;;;;;;5028680;28;20040;-82
2021/08/04 09:22:15;;;;;;;11.48;6.32;;;;;;;;;;5025990;28;20064;-81
2021/08/04 09:24:55;;;;;;;7.50;5.43;;;;;;;;;;5038543;28;20026;-83
2021/08/04 09:27:57;;;;;;;7.25;5.20;;;;;;;;;;5025313;28;20034;-83
2021/08/04 09:30:26;;;;;;;6.20;5.00;;;;;;;;;;5028120;28;20036;-84
2021/08/04 09:32:54;;;;;;;7.40;4.47;;;;;;;;;;5033626;28;20029;-83
2021/08/04 09:35:21;;;;;;;7.78;4.82;;;;;;;;;;5036183;28;20037;-83
2021/08/04 09:37:48;;;;;;;7.32;4.90;;;;;;;;;;5034380;28;20041;-83
2021/08/04 09:40:16;;;;;;;6.95;4.90;;;;;;;;;;5033597;28;20370;-83
2021/08/04 09:42:54;;;;;;;8.40;5.70;;;;;;;;;;5028918;28;20724;-83
2021/08/04 09:45:40;;;;;;;9.50;5.75;;;;;;;;;;5033013;28;20083;-83
2021/08/04 09:48:09;;;;;;;8.57;5.97;;;;;;;;;;5036074;28;20029;-83
2021/08/04 09:50:58;;;;;;;8.65;5.30;;;;;;;;;;5024950;28;20488;-84
2021/08/04 09:53:28;;;;;;;7.60;5.35;;;;;;;;;;5027223;28;20452;-83
2021/08/04 09:56:14;;;;;;;7.03;5.25;;;;;;;;;;5027236;28;20112;-84
2021/08/04 09:58:48;;;;;;;6.30;4.95;;;;;;;;;;5038072;28;20622;-83
2021/08/04 10:01:20;;;;;;;8.43;5.50;;;;;;;;;;5022980;28;20036;-82
2021/08/04 10:04:06;;;;;;;7.97;5.27;;;;;;;;;;5028341;28;20037;-82
2021/08/04 10:06:34;;;;;;;8.30;5.82;;;;;;;;;;5029811;28;20040;-84
2021/08/04 10:09:00;;;;;;;6.38;5.00;;;;;;;;;;5039537;28;20410;-83
2021/08/04 10:11:26;;;;;;;6.13;4.75;;;;;;;;;;5037635;28;20034;-83
2021/08/04 10:13:55;;;;;;;7.45;4.68;;;;;;;;;;5037753;28;20033;-83
2021/08/04 10:16:22;;;;;;;9.43;5.15;;;;;;;;;;5032756;28;20029;-83
2021/08/04 10:18:49;;;;;;;7.07;5.50;;;;;;;;;;5033654;28;20473;-84
2021/08/04 10:21:15;;;;;;;9.70;5.80;;;;;;;;;;5015415;28;20088;-85
2021/08/04 10:23:46;;;;;;;6.30;5.47;;;;;;;;;;5022158;28;20061;-83
2021/08/04 10:26:13;;;;;;;7.13;4.88;;;;;;;;;;5018217;28;20025;-82
2021/08/04 10:28:41;;;;;;;11.15;5.18;;;;;;;;;;5026048;28;20117;-83
2021/08/04 10:31:09;;;;;;;8.75;4.78;;;;;;;;;;5022390;28;20549;-83
2021/08/04 10:33:37;;;;;;;5.85;4.47;;;;;;;;;;5026523;28;20033;-83
2021/08/04 10:36:05;;;;;;;7.00;3.72;;;;;;;;;;5026918;28;20041;-83
2021/08/04 10:38:33;;;;;;;7.50;4.40;;;;;;;;;;5017472;28;20156;-82
2021/08/04 10:41:19;;;;;;;7.90;5.30;;;;;;;;;;5025030;28;20037;-82
2021/08/04 10:43:53;;;;;;;7.68;5.13;;;;;;;;;;5003515;28;20036;-83
2021/08/04 10:46:39;;;;;;;6.63;4.65;;;;;;;;;;5015753;28;20460;-83
2021/08/04 10:49:09;;;;;;;8.77;5.32;;;;;;;;;;5019640;28;20728;-83
2021/08/04 10:51:35;;;;;;;8.88;5.40;;;;;;;;;;5018609;28;20671;-83
2021/08/04 10:54:00;;;;;;;7.57;5.30;;;;;;;;;;5010789;28;20037;-83
2021/08/04 10:56:32;;;;;;;8.73;5.38;;;;;;;;;;5025143;28;20618;-83
2021/08/04 10:59:12;;;;;;;7.88;4.30;;;;;;;;;;5017909;28;20025;-83
2021/08/04 11:01:42;;;;;;;9.60;4.85;;;;;;;;;;5026442;28;20701;-83
2021/08/04 11:04:09;;;;;;;6.47;4.70;;;;;;;;;;5019304;28;20022;-83
2021/08/04 11:07:09;;;;;;;7.63;4.65;;;;;;;;;;5008709;28;20060;-82
2021/08/04 11:09:35;;;;;;;9.30;5.68;;;;;;;;;;5031017;28;20887;-82
2021/08/04 11:12:03;;;;;;;6.75;4.50;;;;;;;;;;5019587;28;20117;-83
2021/08/04 11:14:39;;;;;;;7.25;4.30;;;;;;;;;;5039865;28;20037;-85
2021/08/04 11:17:07;;;;;;;8.32;3.90;;;;;;;;;;5034306;28;20116;-83
2021/08/04 11:19:53;;;;;;;6.70;4.00;;;;;;;;;;5010350;28;20041;-86
2021/08/04 11:22:22;;;;;;;8.77;4.63;;;;;;;;;;5016826;28;20056;-84
2021/08/04 11:25:09;;;;;;;4.60;3.67;;;;;;;;;;5023002;28;20029;-83
2021/08/04 11:27:37;;;;;;;7.07;3.75;;;;;;;;;;5022331;28;20581;-84
2021/08/04 11:30:03;;;;;;;5.78;4.00;;;;;;;;;;5019716;28;20030;-85
2021/08/04 11:32:31;;;;;;;6.15;3.60;;;;;;;;;;5010716;28;20049;-84
2021/08/04 11:34:57;;;;;;;7.15;4.65;;;;;;;;;;5016792;28;20073;-86
2021/08/04 11:37:25;;;;;;;7.93;5.20;;;;;;;;;;5023853;28;20588;-85
2021/08/04 11:40:02;;;;;;;6.68;4.88;;;;;;;;;;5027667;28;20438;-85
2021/08/04 11:42:29;;;;;;;6.93;5.00;;;;;;;;;;5027692;28;20647;-85
2021/08/04 11:45:06;;;;;;;5.55;4.50;;;;;;;;;;5011504;28;20026;-81
2021/08/04 11:47:31;;;;;;;8.95;4.53;;;;;;;;;;5029433;28;20063;-82
2021/08/04 11:50:04;;;;;;;5.43;3.95;;;;;;;;;;5010995;28;20116;-86
2021/08/04 11:52:32;;;;;;;5.95;4.15;;;;;;;;;;5008314;28;20104;-78
2021/08/04 11:55:00;;;;;;;7.00;4.35;;;;;;;;;;5017863;28;20061;-82
2021/08/04 11:57:31;;;;;;;6.78;4.63;;;;;;;;;;5020023;28;20053;-81
2021/08/04 12:00:04;;;;;;;8.98;5.20;;;;;;;;;;5012313;28;20069;-80
2021/08/04 12:02:31;;;;;;;7.72;5.80;;;;;;;;;;5019383;28;20116;-80
2021/08/04 12:04:58;;;;;;;9.20;6.00;;;;;;;;;;5025848;28;20140;-81
2021/08/04 12:07:29;;;;;;;10.55;6.53;;;;;;;;;;5026093;28;20072;-81
2021/08/04 12:10:00;;;;;;;6.68;5.22;;;;;;;;;;5026006;28;20828;-81
2021/08/04 12:12:31;;;;;;;5.90;4.75;;;;;;;;;;5018424;28;20142;-81
2021/08/04 12:14:58;;;;;;;7.70;4.82;;;;;;;;;;5027009;28;20934;-82
2021/08/04 12:17:36;;;;;;;7.15;4.13;;;;;;;;;;5022387;28;20032;-81
2021/08/04 12:20:22;;;;;;;7.95;5.18;;;;;;;;;;5021004;28;20351;-81
2021/08/04 12:22:59;;;;;;;6.50;5.43;;;;;;;;;;5034490;28;20026;-81
2021/08/04 12:25:25;;;;;;;9.80;6.13;;;;;;;;;;5018169;28;20022;-80
2021/08/04 12:27:53;;;;;;;8.48;5.35;;;;;;;;;;5000846;28;20032;-81
2021/08/04 12:30:32;;;;;;;8.15;5.18;;;;;;;;;;5025263;28;20037;-81
2021/08/04 12:33:07;;;;;;;6.80;4.72;;;;;;;;;;5016996;28;20033;-80
2021/08/04 12:36:07;;;;;;;8.02;5.47;;;;;;;;;;5026036;28;20029;-80
2021/08/04 12:38:45;;;;;;;5.97;4.47;;;;;;;;;;5024376;28;20039;-80
2021/08/04 12:41:16;;;;;;;6.90;4.97;;;;;;;;;;5019884;28;20049;-80
2021/08/04 12:43:43;;;;;;;7.60;5.45;;;;;;;;;;5014186;28;20382;-80
2021/08/04 12:46:09;;;;;;;6.40;5.30;;;;;;;;;;5023660;28;20065;-81
2021/08/04 12:48:46;;;;;;;6.05;4.40;;;;;;;;;;5024862;28;20867;-81
2021/08/04 12:51:14;;;;;;;6.07;4.90;;;;;;;;;;5007266;28;20030;-81
2021/08/04 12:53:41;;;;;;;9.82;5.45;;;;;;;;;;5021625;28;20022;-81
2021/08/04 12:56:08;;;;;;;6.53;5.15;;;;;;;;;;5019767;28;20065;-80
2021/08/04 12:58:55;;;;;;;8.35;5.63;;;;;;;;;;5019459;28;20064;-81
2021/08/04 13:01:22;;;;;;;8.00;5.93;;;;;;;;;;5027382;28;20496;-80
2021/08/04 13:03:50;;;;;;;8.38;5.60;;;;;;;;;;5009538;28;20041;-80
2021/08/04 13:06:35;;;;;;;7.88;5.50;;;;;;;;;;5026108;28;20513;-81
2021/08/04 13:09:03;;;;;;;7.40;5.05;;;;;;;;;;5025073;28;20426;-80
2021/08/04 13:11:29;;;;;;;8.65;5.40;;;;;;;;;;5024850;28;20052;-80
2021/08/04 13:14:02;;;;;;;6.15;4.60;;;;;;;;;;5021145;28;20105;-80
2021/08/04 13:16:38;;;;;;;14.68;5.60;;;;;;;;;;5016732;28;20422;-80
2021/08/04 13:19:25;;;;;;;6.30;4.93;;;;;;;;;;5026298;28;20033;-80
2021/08/04 13:21:58;;;;;;;7.43;5.25;;;;;;;;;;5018327;28;20827;-81
2021/08/04 13:24:42;;;;;;;7.68;4.65;;;;;;;;;;5017208;28;20018;-80
2021/08/04 13:27:30;;;;;;;8.20;5.45;;;;;;;;;;4988495;28;20033;-80
2021/08/04 13:30:16;;;;;;;10.13;5.38;;;;;;;;;;5017308;28;20021;-82
2021/08/04 13:32:42;;;;;;;6.97;5.50;;;;;;;;;;5030519;28;20489;-81
2021/08/04 13:35:08;;;;;;;6.90;5.32;;;;;;;;;;5024085;28;20091;-81
2021/08/04 13:37:33;;;;;;;8.70;5.15;;;;;;;;;;5021033;28;20590;-81
2021/08/04 13:39:58;;;;;;;6.25;5.40;;;;;;;;;;5028651;28;20124;-81
2021/08/04 13:42:24;;;;;;;7.53;4.93;;;;;;;;;;5027832;28;20034;-80
2021/08/04 13:44:49;;;;;;;7.05;5.28;;;;;;;;;;5018949;28;20837;-81
2021/08/04 13:47:14;;;;;;;5.65;4.55;;;;;;;;;;5012208;28;20034;-82
2021/08/04 13:49:40;;;;;;;7.18;5.22;;;;;;;;;;5008659;28;20037;-81
2021/08/04 13:52:06;;;;;;;8.75;5.20;;;;;;;;;;5026324;28;20152;-81
2021/08/04 13:54:31;;;;;;;10.00;4.72;;;;;;;;;;5015605;28;20045;-81
2021/08/04 13:56:56;;;;;;;7.38;4.60;;;;;;;;;;5030189;28;20037;-81
2021/08/04 13:59:22;;;;;;;6.95;4.70;;;;;;;;;;5003287;28;20088;-82
2021/08/04 14:01:47;;;;;;;8.02;4.68;;;;;;;;;;5022127;28;20036;-81
2021/08/04 14:04:13;;;;;;;7.35;4.30;;;;;;;;;;5006694;28;20033;-80
2021/08/04 14:06:38;;;;;;;9.02;5.00;;;;;;;;;;5020000;28;20055;-80
2021/08/04 14:09:03;;;;;;;5.32;4.05;;;;;;;;;;5007230;28;20112;-81
2021/08/04 14:11:29;;;;;;;6.55;4.15;;;;;;;;;;5008153;28;20061;-80
2021/08/04 14:13:55;;;;;;;7.55;4.13;;;;;;;;;;5014794;28;20575;-81
2021/08/04 14:16:21;;;;;;;6.15;4.05;;;;;;;;;;5016624;28;20038;-81
2021/08/04 14:18:46;;;;;;;7.38;4.00;;;;;;;;;;5025661;28;20052;-81
2021/08/04 14:21:12;;;;;;;6.93;4.53;;;;;;;;;;5018762;28;20029;-81
2021/08/04 14:23:37;;;;;;;5.63;4.35;;;;;;;;;;5022394;28;20033;-81
2021/08/04 14:26:02;;;;;;;8.02;4.30;;;;;;;;;;5002232;28;20038;-81
2021/08/04 14:28:28;;;;;;;6.40;4.20;;;;;;;;;;5001590;28;20087;-81
2021/08/04 14:30:53;;;;;;;7.97;4.00;;;;;;;;;;5022680;28;20409;-81
2021/08/04 14:33:19;;;;;;;5.88;3.90;;;;;;;;;;5006953;28;20037;-81
2021/08/04 14:35:44;;;;;;;7.50;4.82;;;;;;;;;;5024047;28;20528;-81
2021/08/04 14:38:10;;;;;;;7.72;4.70;;;;;;;;;;5018593;28;20064;-81
2021/08/04 14:40:35;;;;;;;6.97;4.07;;;;;;;;;;5029461;28;20029;-81